sensor_id;sensor_type;location;lat;lon;timestamp;P1;durP1;ratioP1;P2;durP2;ratioP2
19537;SDS011;9914;51.008;4.300;2022-09-27T00:01:37;9.90;;;3.43;;
19537;SDS011;9914;51.008;4.300;2022-09-27T00:04:02;5.27;;;3.20;;
19537;SDS011;9914;51.008;4.300;2022-09-27T00:06:29;4.97;;;3.13;;
19537;SDS011;9914;51.008;4.300;2022-09-27T00:08:55;6.90;;;3.03;;
19537;SDS011;9914;51.008;4.300;2022-09-27T00:11:29;4.97;;;2.37;;
19537;SDS011;9914;51.008;4.300;2022-09-27T00:14:00;5.47;;;2.10;;
19537;SDS011;9914;51.008;4.300;2022-09-27T00:16:27;7.67;;;2.30;;
19537;SDS011;9914;51.008;4.300;2022-09-27T00:18:59;8.30;;;2.30;;
19537;SDS011;9914;51.008;4.300;2022-09-27T00:21:26;8.80;;;2.17;;
19537;SDS011;9914;51.008;4.300;2022-09-27T00:23:54;9.10;;;2.37;;
19537;SDS011;9914;51.008;4.300;2022-09-27T00:26:19;4.90;;;1.70;;
19537;SDS011;9914;51.008;4.300;2022-09-27T00:28:45;9.33;;;1.90;;
19537;SDS011;9914;51.008;4.300;2022-09-27T00:31:21;10.27;;;1.80;;
19537;SDS011;9914;51.008;4.300;2022-09-27T00:33:49;4.03;;;1.87;;
19537;SDS011;9914;51.008;4.300;2022-09-27T00:36:16;4.10;;;1.97;;
19537;SDS011;9914;51.008;4.300;2022-09-27T00:38:43;6.20;;;2.10;;
19537;SDS011;9914;51.008;4.300;2022-09-27T00:41:16;5.23;;;2.00;;
19537;SDS011;9914;51.008;4.300;2022-09-27T00:43:56;4.50;;;1.57;;
19537;SDS011;9914;51.008;4.300;2022-09-27T00:46:35;4.87;;;1.63;;
19537;SDS011;9914;51.008;4.300;2022-09-27T00:51:41;5.37;;;1.40;;
19537;SDS011;9914;51.008;4.300;2022-09-27T00:54:10;2.50;;;1.13;;
19537;SDS011;9914;51.008;4.300;2022-09-27T00:56:38;6.60;;;1.20;;
19537;SDS011;9914;51.008;4.300;2022-09-27T00:59:06;4.80;;;1.77;;
19537;SDS011;9914;51.008;4.300;2022-09-27T01:01:37;9.87;;;2.00;;
19537;SDS011;9914;51.008;4.300;2022-09-27T01:06:33;5.13;;;1.70;;
19537;SDS011;9914;51.008;4.300;2022-09-27T01:08:59;5.07;;;1.67;;
19537;SDS011;9914;51.008;4.300;2022-09-27T01:11:39;1.93;;;1.43;;
19537;SDS011;9914;51.008;4.300;2022-09-27T01:17:19;3.13;;;1.57;;
19537;SDS011;9914;51.008;4.300;2022-09-27T01:36:44;4.20;;;1.27;;
19537;SDS011;9914;51.008;4.300;2022-09-27T01:44:09;4.17;;;1.40;;
19537;SDS011;9914;51.008;4.300;2022-09-27T01:46:43;4.43;;;1.40;;
19537;SDS011;9914;51.008;4.300;2022-09-27T01:49:17;3.33;;;1.20;;
19537;SDS011;9914;51.008;4.300;2022-09-27T01:51:54;9.83;;;1.57;;
19537;SDS011;9914;51.008;4.300;2022-09-27T01:54:26;6.37;;;1.20;;
19537;SDS011;9914;51.008;4.300;2022-09-27T01:57:12;2.43;;;1.07;;
19537;SDS011;9914;51.008;4.300;2022-09-27T01:59:45;4.77;;;1.30;;
19537;SDS011;9914;51.008;4.300;2022-09-27T02:02:15;9.20;;;1.60;;
19537;SDS011;9914;51.008;4.300;2022-09-27T02:04:44;4.60;;;1.20;;
19537;SDS011;9914;51.008;4.300;2022-09-27T02:07:26;2.13;;;1.10;;
19537;SDS011;9914;51.008;4.300;2022-09-27T02:09:58;3.03;;;1.40;;
19537;SDS011;9914;51.008;4.300;2022-09-27T02:12:39;2.00;;;1.10;;
19537;SDS011;9914;51.008;4.300;2022-09-27T02:15:11;2.73;;;1.47;;
19537;SDS011;9914;51.008;4.300;2022-09-27T02:26:32;3.93;;;0.87;;
19537;SDS011;9914;51.008;4.300;2022-09-27T02:29:07;1.40;;;0.90;;
19537;SDS011;9914;51.008;4.300;2022-09-27T02:31:36;2.17;;;0.97;;
19537;SDS011;9914;51.008;4.300;2022-09-27T02:34:04;3.00;;;1.00;;
19537;SDS011;9914;51.008;4.300;2022-09-27T02:36:35;5.50;;;1.30;;
19537;SDS011;9914;51.008;4.300;2022-09-27T02:39:02;1.97;;;1.20;;
19537;SDS011;9914;51.008;4.300;2022-09-27T02:41:28;3.30;;;1.10;;
19537;SDS011;9914;51.008;4.300;2022-09-27T02:43:58;8.37;;;1.17;;
19537;SDS011;9914;51.008;4.300;2022-09-27T02:49:28;5.03;;;1.13;;
19537;SDS011;9914;51.008;4.300;2022-09-27T02:55:38;1.73;;;1.17;;
19537;SDS011;9914;51.008;4.300;2022-09-27T03:00:41;3.27;;;1.40;;
19537;SDS011;9914;51.008;4.300;2022-09-27T03:03:23;6.40;;;1.43;;
19537;SDS011;9914;51.008;4.300;2022-09-27T03:06:17;3.03;;;1.57;;
19537;SDS011;9914;51.008;4.300;2022-09-27T03:08:44;3.27;;;1.50;;
19537;SDS011;9914;51.008;4.300;2022-09-27T03:11:11;5.83;;;1.57;;
19537;SDS011;9914;51.008;4.300;2022-09-27T03:13:37;3.87;;;1.47;;
19537;SDS011;9914;51.008;4.300;2022-09-27T03:16:04;7.30;;;1.67;;
19537;SDS011;9914;51.008;4.300;2022-09-27T03:18:31;1.90;;;1.60;;
19537;SDS011;9914;51.008;4.300;2022-09-27T03:20:57;2.70;;;1.77;;
19537;SDS011;9914;51.008;4.300;2022-09-27T03:23:23;5.43;;;1.43;;
19537;SDS011;9914;51.008;4.300;2022-09-27T03:25:49;4.67;;;1.47;;
19537;SDS011;9914;51.008;4.300;2022-09-27T03:28:15;3.73;;;2.20;;
19537;SDS011;9914;51.008;4.300;2022-09-27T03:30:43;2.63;;;1.80;;
19537;SDS011;9914;51.008;4.300;2022-09-27T03:33:09;4.73;;;2.27;;
19537;SDS011;9914;51.008;4.300;2022-09-27T03:35:35;4.47;;;1.80;;
19537;SDS011;9914;51.008;4.300;2022-09-27T03:38:01;4.07;;;2.50;;
19537;SDS011;9914;51.008;4.300;2022-09-27T03:40:27;4.00;;;2.40;;
19537;SDS011;9914;51.008;4.300;2022-09-27T03:42:53;5.77;;;2.70;;
19537;SDS011;9914;51.008;4.300;2022-09-27T03:45:19;2.87;;;1.87;;
19537;SDS011;9914;51.008;4.300;2022-09-27T03:47:45;3.97;;;2.10;;
19537;SDS011;9914;51.008;4.300;2022-09-27T03:50:12;7.40;;;2.20;;
19537;SDS011;9914;51.008;4.300;2022-09-27T03:52:37;3.73;;;2.13;;
19537;SDS011;9914;51.008;4.300;2022-09-27T03:55:03;2.67;;;1.90;;
19537;SDS011;9914;51.008;4.300;2022-09-27T03:57:30;8.67;;;2.37;;
19537;SDS011;9914;51.008;4.300;2022-09-27T03:59:56;4.00;;;2.50;;
19537;SDS011;9914;51.008;4.300;2022-09-27T04:02:25;3.17;;;2.00;;
19537;SDS011;9914;51.008;4.300;2022-09-27T04:04:51;5.40;;;2.07;;
19537;SDS011;9914;51.008;4.300;2022-09-27T04:07:17;3.03;;;1.97;;
19537;SDS011;9914;51.008;4.300;2022-09-27T04:09:47;3.00;;;2.33;;
19537;SDS011;9914;51.008;4.300;2022-09-27T04:12:13;4.87;;;2.40;;
19537;SDS011;9914;51.008;4.300;2022-09-27T04:14:39;4.70;;;2.23;;
19537;SDS011;9914;51.008;4.300;2022-09-27T04:17:05;9.97;;;2.97;;
19537;SDS011;9914;51.008;4.300;2022-09-27T04:19:31;5.20;;;2.40;;
19537;SDS011;9914;51.008;4.300;2022-09-27T04:21:56;5.40;;;2.50;;
19537;SDS011;9914;51.008;4.300;2022-09-27T04:24:22;7.07;;;2.87;;
19537;SDS011;9914;51.008;4.300;2022-09-27T04:26:48;6.60;;;2.53;;
19537;SDS011;9914;51.008;4.300;2022-09-27T04:29:14;3.10;;;2.30;;
19537;SDS011;9914;51.008;4.300;2022-09-27T04:31:40;5.30;;;2.30;;
19537;SDS011;9914;51.008;4.300;2022-09-27T04:34:08;3.50;;;2.57;;
19537;SDS011;9914;51.008;4.300;2022-09-27T04:36:34;4.07;;;2.17;;
19537;SDS011;9914;51.008;4.300;2022-09-27T04:39:02;2.37;;;2.17;;
19537;SDS011;9914;51.008;4.300;2022-09-27T04:41:29;4.63;;;2.43;;
19537;SDS011;9914;51.008;4.300;2022-09-27T04:43:55;3.80;;;2.03;;
19537;SDS011;9914;51.008;4.300;2022-09-27T04:46:23;4.07;;;2.37;;
19537;SDS011;9914;51.008;4.300;2022-09-27T04:48:49;8.90;;;2.40;;
19537;SDS011;9914;51.008;4.300;2022-09-27T04:51:15;5.80;;;3.13;;
19537;SDS011;9914;51.008;4.300;2022-09-27T04:53:42;3.90;;;2.70;;
19537;SDS011;9914;51.008;4.300;2022-09-27T04:56:09;5.73;;;3.97;;
19537;SDS011;9914;51.008;4.300;2022-09-27T04:58:35;4.63;;;3.40;;
19537;SDS011;9914;51.008;4.300;2022-09-27T05:01:01;5.30;;;3.20;;
19537;SDS011;9914;51.008;4.300;2022-09-27T05:03:28;4.57;;;3.67;;
19537;SDS011;9914;51.008;4.300;2022-09-27T05:05:55;9.77;;;5.10;;
19537;SDS011;9914;51.008;4.300;2022-09-27T05:08:20;5.37;;;4.53;;
19537;SDS011;9914;51.008;4.300;2022-09-27T05:10:46;4.63;;;4.17;;
19537;SDS011;9914;51.008;4.300;2022-09-27T05:13:13;6.27;;;4.80;;
19537;SDS011;9914;51.008;4.300;2022-09-27T05:15:39;8.93;;;5.17;;
19537;SDS011;9914;51.008;4.300;2022-09-27T05:18:06;9.20;;;5.73;;
19537;SDS011;9914;51.008;4.300;2022-09-27T05:20:34;9.30;;;4.80;;
19537;SDS011;9914;51.008;4.300;2022-09-27T05:23:01;9.37;;;5.70;;
19537;SDS011;9914;51.008;4.300;2022-09-27T05:25:28;9.23;;;5.63;;
19537;SDS011;9914;51.008;4.300;2022-09-27T05:27:55;5.70;;;5.03;;
19537;SDS011;9914;51.008;4.300;2022-09-27T05:30:22;6.67;;;5.13;;
19537;SDS011;9914;51.008;4.300;2022-09-27T05:32:48;8.10;;;5.03;;
19537;SDS011;9914;51.008;4.300;2022-09-27T05:35:15;7.23;;;4.50;;
19537;SDS011;9914;51.008;4.300;2022-09-27T05:37:42;5.33;;;4.10;;
19537;SDS011;9914;51.008;4.300;2022-09-27T05:40:15;6.13;;;4.10;;
19537;SDS011;9914;51.008;4.300;2022-09-27T05:42:40;5.33;;;4.70;;
19537;SDS011;9914;51.008;4.300;2022-09-27T05:45:06;14.30;;;4.20;;
19537;SDS011;9914;51.008;4.300;2022-09-27T05:47:32;7.63;;;4.23;;
19537;SDS011;9914;51.008;4.300;2022-09-27T05:49:57;4.57;;;4.23;;
19537;SDS011;9914;51.008;4.300;2022-09-27T05:52:23;4.47;;;3.83;;
19537;SDS011;9914;51.008;4.300;2022-09-27T05:54:50;4.80;;;4.37;;
19537;SDS011;9914;51.008;4.300;2022-09-27T05:57:16;5.60;;;4.60;;
19537;SDS011;9914;51.008;4.300;2022-09-27T05:59:41;7.23;;;4.60;;
19537;SDS011;9914;51.008;4.300;2022-09-27T06:02:09;5.10;;;4.60;;
19537;SDS011;9914;51.008;4.300;2022-09-27T06:04:35;5.73;;;4.60;;
19537;SDS011;9914;51.008;4.300;2022-09-27T06:07:00;7.07;;;4.53;;
19537;SDS011;9914;51.008;4.300;2022-09-27T06:09:26;5.23;;;3.67;;
19537;SDS011;9914;51.008;4.300;2022-09-27T06:11:52;8.17;;;4.00;;
19537;SDS011;9914;51.008;4.300;2022-09-27T06:14:18;6.50;;;4.27;;
19537;SDS011;9914;51.008;4.300;2022-09-27T06:16:44;7.27;;;4.00;;
19537;SDS011;9914;51.008;4.300;2022-09-27T06:19:10;6.60;;;4.20;;
19537;SDS011;9914;51.008;4.300;2022-09-27T06:21:36;3.93;;;3.43;;
19537;SDS011;9914;51.008;4.300;2022-09-27T06:24:01;3.93;;;3.47;;
19537;SDS011;9914;51.008;4.300;2022-09-27T06:26:28;4.13;;;3.30;;
19537;SDS011;9914;51.008;4.300;2022-09-27T06:28:53;4.07;;;3.70;;
19537;SDS011;9914;51.008;4.300;2022-09-27T06:31:19;3.33;;;3.07;;
19537;SDS011;9914;51.008;4.300;2022-09-27T06:33:46;4.47;;;3.47;;
19537;SDS011;9914;51.008;4.300;2022-09-27T06:36:12;4.77;;;3.20;;
19537;SDS011;9914;51.008;4.300;2022-09-27T06:38:38;5.43;;;3.30;;
19537;SDS011;9914;51.008;4.300;2022-09-27T06:41:04;3.63;;;2.70;;
19537;SDS011;9914;51.008;4.300;2022-09-27T06:43:33;4.63;;;3.50;;
19537;SDS011;9914;51.008;4.300;2022-09-27T06:45:59;8.20;;;3.43;;
19537;SDS011;9914;51.008;4.300;2022-09-27T06:48:30;5.90;;;2.60;;
19537;SDS011;9914;51.008;4.300;2022-09-27T06:50:56;6.07;;;2.90;;
19537;SDS011;9914;51.008;4.300;2022-09-27T06:53:23;5.63;;;2.90;;
19537;SDS011;9914;51.008;4.300;2022-09-27T06:55:49;4.53;;;2.67;;
19537;SDS011;9914;51.008;4.300;2022-09-27T06:58:15;3.50;;;2.63;;
19537;SDS011;9914;51.008;4.300;2022-09-27T07:01:00;3.17;;;2.57;;
19537;SDS011;9914;51.008;4.300;2022-09-27T07:03:26;3.43;;;2.67;;
19537;SDS011;9914;51.008;4.300;2022-09-27T07:05:57;4.17;;;3.00;;
19537;SDS011;9914;51.008;4.300;2022-09-27T07:08:24;3.70;;;2.63;;
19537;SDS011;9914;51.008;4.300;2022-09-27T07:10:52;4.90;;;2.83;;
19537;SDS011;9914;51.008;4.300;2022-09-27T07:13:26;4.00;;;2.77;;
19537;SDS011;9914;51.008;4.300;2022-09-27T07:15:55;3.87;;;2.90;;
19537;SDS011;9914;51.008;4.300;2022-09-27T07:18:21;4.50;;;3.30;;
19537;SDS011;9914;51.008;4.300;2022-09-27T07:20:46;4.30;;;3.27;;
19537;SDS011;9914;51.008;4.300;2022-09-27T07:23:13;6.30;;;3.37;;
19537;SDS011;9914;51.008;4.300;2022-09-27T07:25:39;4.53;;;3.20;;
19537;SDS011;9914;51.008;4.300;2022-09-27T07:28:05;5.20;;;3.60;;
19537;SDS011;9914;51.008;4.300;2022-09-27T07:30:33;6.13;;;3.27;;
19537;SDS011;9914;51.008;4.300;2022-09-27T07:33:01;5.40;;;3.60;;
19537;SDS011;9914;51.008;4.300;2022-09-27T07:35:29;4.73;;;3.50;;
19537;SDS011;9914;51.008;4.300;2022-09-27T07:37:55;3.60;;;3.30;;
19537;SDS011;9914;51.008;4.300;2022-09-27T07:40:22;4.03;;;3.43;;
19537;SDS011;9914;51.008;4.300;2022-09-27T07:42:54;5.63;;;3.67;;
19537;SDS011;9914;51.008;4.300;2022-09-27T07:45:20;4.13;;;3.30;;
19537;SDS011;9914;51.008;4.300;2022-09-27T07:47:47;4.03;;;3.17;;
19537;SDS011;9914;51.008;4.300;2022-09-27T07:50:12;4.20;;;3.20;;
19537;SDS011;9914;51.008;4.300;2022-09-27T07:52:39;4.33;;;3.40;;
19537;SDS011;9914;51.008;4.300;2022-09-27T07:55:06;7.30;;;3.53;;
19537;SDS011;9914;51.008;4.300;2022-09-27T07:57:32;3.93;;;3.30;;
19537;SDS011;9914;51.008;4.300;2022-09-27T07:59:58;4.10;;;3.10;;
19537;SDS011;9914;51.008;4.300;2022-09-27T08:02:24;6.37;;;3.43;;
19537;SDS011;9914;51.008;4.300;2022-09-27T08:04:49;3.50;;;2.80;;
19537;SDS011;9914;51.008;4.300;2022-09-27T08:07:15;5.63;;;2.30;;
19537;SDS011;9914;51.008;4.300;2022-09-27T08:09:41;3.27;;;2.37;;
19537;SDS011;9914;51.008;4.300;2022-09-27T08:12:07;4.77;;;2.40;;
19537;SDS011;9914;51.008;4.300;2022-09-27T08:14:33;3.47;;;2.37;;
19537;SDS011;9914;51.008;4.300;2022-09-27T08:16:59;2.30;;;1.93;;
19537;SDS011;9914;51.008;4.300;2022-09-27T08:19:24;5.40;;;2.30;;
19537;SDS011;9914;51.008;4.300;2022-09-27T08:21:51;4.33;;;2.20;;
19537;SDS011;9914;51.008;4.300;2022-09-27T08:24:19;6.63;;;6.07;;
19537;SDS011;9914;51.008;4.300;2022-09-27T08:26:45;5.57;;;5.07;;
19537;SDS011;9914;51.008;4.300;2022-09-27T08:29:10;4.90;;;3.57;;
19537;SDS011;9914;51.008;4.300;2022-09-27T08:31:36;5.23;;;3.13;;
19537;SDS011;9914;51.008;4.300;2022-09-27T08:34:02;3.67;;;3.37;;
19537;SDS011;9914;51.008;4.300;2022-09-27T08:36:28;10.13;;;3.33;;
19537;SDS011;9914;51.008;4.300;2022-09-27T08:38:55;6.40;;;2.83;;
19537;SDS011;9914;51.008;4.300;2022-09-27T08:46:50;2.97;;;2.70;;
19537;SDS011;9914;51.008;4.300;2022-09-27T08:52:18;2.50;;;2.30;;
19537;SDS011;9914;51.008;4.300;2022-09-27T08:54:47;4.80;;;2.83;;
19537;SDS011;9914;51.008;4.300;2022-09-27T08:57:14;4.07;;;2.47;;
19537;SDS011;9914;51.008;4.300;2022-09-27T08:59:46;2.80;;;2.23;;
19537;SDS011;9914;51.008;4.300;2022-09-27T09:02:26;4.67;;;1.87;;
19537;SDS011;9914;51.008;4.300;2022-09-27T09:04:56;2.77;;;1.87;;
19537;SDS011;9914;51.008;4.300;2022-09-27T09:13:52;3.30;;;1.67;;
19537;SDS011;9914;51.008;4.300;2022-09-27T09:17:01;2.07;;;1.40;;
19537;SDS011;9914;51.008;4.300;2022-09-27T09:25:21;3.47;;;1.87;;
19537;SDS011;9914;51.008;4.300;2022-09-27T09:30:40;1.87;;;1.53;;
19537;SDS011;9914;51.008;4.300;2022-09-27T09:33:22;7.83;;;1.63;;
19537;SDS011;9914;51.008;4.300;2022-09-27T09:35:57;2.53;;;1.60;;
19537;SDS011;9914;51.008;4.300;2022-09-27T09:41:08;4.47;;;1.63;;
19537;SDS011;9914;51.008;4.300;2022-09-27T09:43:52;3.10;;;1.60;;
19537;SDS011;9914;51.008;4.300;2022-09-27T09:46:40;4.47;;;1.80;;
19537;SDS011;9914;51.008;4.300;2022-09-27T09:49:19;4.67;;;1.97;;
19537;SDS011;9914;51.008;4.300;2022-09-27T09:51:51;4.97;;;1.80;;
19537;SDS011;9914;51.008;4.300;2022-09-27T09:54:37;3.60;;;1.60;;
19537;SDS011;9914;51.008;4.300;2022-09-27T09:57:20;3.47;;;1.73;;
19537;SDS011;9914;51.008;4.300;2022-09-27T10:02:33;5.07;;;1.80;;
19537;SDS011;9914;51.008;4.300;2022-09-27T10:05:04;3.73;;;1.70;;
19537;SDS011;9914;51.008;4.300;2022-09-27T10:07:31;3.37;;;1.93;;
19537;SDS011;9914;51.008;4.300;2022-09-27T10:10:00;3.90;;;1.60;;
19537;SDS011;9914;51.008;4.300;2022-09-27T10:12:28;7.57;;;2.10;;
19537;SDS011;9914;51.008;4.300;2022-09-27T10:14:54;4.63;;;2.00;;
19537;SDS011;9914;51.008;4.300;2022-09-27T10:17:26;6.30;;;1.93;;
19537;SDS011;9914;51.008;4.300;2022-09-27T10:20:04;5.13;;;1.90;;
19537;SDS011;9914;51.008;4.300;2022-09-27T10:22:38;8.40;;;1.77;;
19537;SDS011;9914;51.008;4.300;2022-09-27T10:25:08;3.70;;;1.80;;
19537;SDS011;9914;51.008;4.300;2022-09-27T10:28:07;5.30;;;2.03;;
19537;SDS011;9914;51.008;4.300;2022-09-27T10:32:53;4.43;;;1.80;;
19537;SDS011;9914;51.008;4.300;2022-09-27T10:37:59;4.00;;;1.50;;
19537;SDS011;9914;51.008;4.300;2022-09-27T10:40:51;5.67;;;1.87;;
19537;SDS011;9914;51.008;4.300;2022-09-27T10:51:44;4.97;;;1.83;;
19537;SDS011;9914;51.008;4.300;2022-09-27T10:57:04;5.13;;;2.23;;
19537;SDS011;9914;51.008;4.300;2022-09-27T10:59:42;4.07;;;2.00;;
19537;SDS011;9914;51.008;4.300;2022-09-27T11:02:20;8.30;;;2.10;;
19537;SDS011;9914;51.008;4.300;2022-09-27T11:07:28;8.60;;;1.40;;
19537;SDS011;9914;51.008;4.300;2022-09-27T11:09:55;4.67;;;1.53;;
19537;SDS011;9914;51.008;4.300;2022-09-27T11:12:27;2.73;;;1.70;;
19537;SDS011;9914;51.008;4.300;2022-09-27T11:14:58;6.37;;;1.70;;
19537;SDS011;9914;51.008;4.300;2022-09-27T11:20:32;4.17;;;1.23;;
19537;SDS011;9914;51.008;4.300;2022-09-27T11:23:26;1.57;;;1.27;;
19537;SDS011;9914;51.008;4.300;2022-09-27T11:26:35;1.93;;;1.10;;
19537;SDS011;9914;51.008;4.300;2022-09-27T11:43:31;2.27;;;1.27;;
19537;SDS011;9914;51.008;4.300;2022-09-27T12:10:53;1.90;;;1.10;;
19537;SDS011;9914;51.008;4.300;2022-09-27T12:13:37;1.63;;;0.80;;
19537;SDS011;9914;51.008;4.300;2022-09-27T12:16:11;1.90;;;0.90;;
19537;SDS011;9914;51.008;4.300;2022-09-27T12:18:40;1.70;;;0.97;;
19537;SDS011;9914;51.008;4.300;2022-09-27T12:21:09;2.70;;;0.83;;
19537;SDS011;9914;51.008;4.300;2022-09-27T12:26:17;2.00;;;0.80;;
19537;SDS011;9914;51.008;4.300;2022-09-27T12:28:47;1.40;;;0.80;;
19537;SDS011;9914;51.008;4.300;2022-09-27T12:31:25;1.87;;;0.90;;
19537;SDS011;9914;51.008;4.300;2022-09-27T12:34:05;4.13;;;1.17;;
19537;SDS011;9914;51.008;4.300;2022-09-27T12:37:11;6.47;;;1.00;;
19537;SDS011;9914;51.008;4.300;2022-09-27T12:45:18;1.00;;;0.90;;
19537;SDS011;9914;51.008;4.300;2022-09-27T12:56:16;3.33;;;1.20;;
19537;SDS011;9914;51.008;4.300;2022-09-27T13:07:11;2.23;;;1.47;;
19537;SDS011;9914;51.008;4.300;2022-09-27T13:12:29;4.10;;;1.70;;
19537;SDS011;9914;51.008;4.300;2022-09-27T13:23:02;4.10;;;1.23;;
19537;SDS011;9914;51.008;4.300;2022-09-27T13:30:58;4.07;;;1.23;;
19537;SDS011;9914;51.008;4.300;2022-09-27T13:33:47;1.93;;;0.90;;
19537;SDS011;9914;51.008;4.300;2022-09-27T13:44:15;3.40;;;1.10;;
19537;SDS011;9914;51.008;4.300;2022-09-27T13:49:38;1.67;;;1.17;;
19537;SDS011;9914;51.008;4.300;2022-09-27T14:00:07;3.53;;;1.30;;
19537;SDS011;9914;51.008;4.300;2022-09-27T14:05:34;3.47;;;1.47;;
19537;SDS011;9914;51.008;4.300;2022-09-27T14:08:14;4.87;;;1.50;;
19537;SDS011;9914;51.008;4.300;2022-09-27T14:11:02;2.00;;;1.33;;
19537;SDS011;9914;51.008;4.300;2022-09-27T14:13:34;2.30;;;1.40;;
19537;SDS011;9914;51.008;4.300;2022-09-27T14:16:03;3.33;;;1.30;;
19537;SDS011;9914;51.008;4.300;2022-09-27T14:18:30;4.70;;;1.67;;
19537;SDS011;9914;51.008;4.300;2022-09-27T14:26:49;4.03;;;1.37;;
19537;SDS011;9914;51.008;4.300;2022-09-27T14:29:16;6.43;;;1.53;;
19537;SDS011;9914;51.008;4.300;2022-09-27T14:31:43;4.37;;;1.50;;
19537;SDS011;9914;51.008;4.300;2022-09-27T14:34:12;2.97;;;1.60;;
19537;SDS011;9914;51.008;4.300;2022-09-27T14:36:37;2.90;;;1.70;;
19537;SDS011;9914;51.008;4.300;2022-09-27T14:39:23;5.23;;;1.50;;
19537;SDS011;9914;51.008;4.300;2022-09-27T14:41:55;2.87;;;1.80;;
19537;SDS011;9914;51.008;4.300;2022-09-27T14:44:21;3.70;;;1.50;;
19537;SDS011;9914;51.008;4.300;2022-09-27T14:46:47;2.50;;;1.33;;
19537;SDS011;9914;51.008;4.300;2022-09-27T14:52:23;6.67;;;1.50;;
19537;SDS011;9914;51.008;4.300;2022-09-27T14:57:24;2.80;;;1.40;;
19537;SDS011;9914;51.008;4.300;2022-09-27T14:59:52;3.03;;;1.70;;
19537;SDS011;9914;51.008;4.300;2022-09-27T15:02:19;4.63;;;1.87;;
19537;SDS011;9914;51.008;4.300;2022-09-27T15:04:48;5.80;;;1.93;;
19537;SDS011;9914;51.008;4.300;2022-09-27T15:07:15;3.80;;;1.80;;
19537;SDS011;9914;51.008;4.300;2022-09-27T15:09:43;5.00;;;1.90;;
19537;SDS011;9914;51.008;4.300;2022-09-27T15:12:10;5.80;;;1.90;;
19537;SDS011;9914;51.008;4.300;2022-09-27T15:14:40;7.77;;;1.60;;
19537;SDS011;9914;51.008;4.300;2022-09-27T15:17:16;2.63;;;1.83;;
19537;SDS011;9914;51.008;4.300;2022-09-27T15:20:17;8.83;;;1.90;;
19537;SDS011;9914;51.008;4.300;2022-09-27T15:22:46;1.97;;;1.60;;
19537;SDS011;9914;51.008;4.300;2022-09-27T15:28:05;2.50;;;1.47;;
19537;SDS011;9914;51.008;4.300;2022-09-27T15:30:46;1.53;;;1.30;;
19537;SDS011;9914;51.008;4.300;2022-09-27T15:33:25;1.20;;;1.00;;
19537;SDS011;9914;51.008;4.300;2022-09-27T15:35:53;1.73;;;1.10;;
19537;SDS011;9914;51.008;4.300;2022-09-27T15:43:29;1.53;;;1.00;;
19537;SDS011;9914;51.008;4.300;2022-09-27T15:46:00;0.90;;;0.87;;
19537;SDS011;9914;51.008;4.300;2022-09-27T15:48:31;2.00;;;1.30;;
19537;SDS011;9914;51.008;4.300;2022-09-27T15:50:59;1.63;;;1.20;;
19537;SDS011;9914;51.008;4.300;2022-09-27T15:55:58;4.73;;;2.13;;
19537;SDS011;9914;51.008;4.300;2022-09-27T15:58:29;4.10;;;2.30;;
19537;SDS011;9914;51.008;4.300;2022-09-27T16:00:59;4.10;;;2.03;;
19537;SDS011;9914;51.008;4.300;2022-09-27T16:03:26;8.60;;;2.53;;
19537;SDS011;9914;51.008;4.300;2022-09-27T16:05:57;4.07;;;2.07;;
19537;SDS011;9914;51.008;4.300;2022-09-27T16:08:25;3.63;;;2.27;;
19537;SDS011;9914;51.008;4.300;2022-09-27T16:10:52;4.87;;;2.27;;
19537;SDS011;9914;51.008;4.300;2022-09-27T16:13:20;3.97;;;2.70;;
19537;SDS011;9914;51.008;4.300;2022-09-27T16:15:46;4.20;;;2.30;;
19537;SDS011;9914;51.008;4.300;2022-09-27T16:18:12;4.50;;;2.93;;
19537;SDS011;9914;51.008;4.300;2022-09-27T16:20:38;5.23;;;2.30;;
19537;SDS011;9914;51.008;4.300;2022-09-27T16:23:04;3.27;;;2.30;;
19537;SDS011;9914;51.008;4.300;2022-09-27T16:25:29;9.27;;;3.47;;
19537;SDS011;9914;51.008;4.300;2022-09-27T16:27:59;6.63;;;3.60;;
19537;SDS011;9914;51.008;4.300;2022-09-27T16:30:25;7.83;;;4.17;;
19537;SDS011;9914;51.008;4.300;2022-09-27T16:32:52;7.30;;;4.60;;
19537;SDS011;9914;51.008;4.300;2022-09-27T16:35:20;9.57;;;6.40;;
19537;SDS011;9914;51.008;4.300;2022-09-27T16:37:46;9.70;;;5.23;;
19537;SDS011;9914;51.008;4.300;2022-09-27T16:40:12;7.67;;;6.13;;
19537;SDS011;9914;51.008;4.300;2022-09-27T16:42:41;10.83;;;5.37;;
19537;SDS011;9914;51.008;4.300;2022-09-27T16:45:08;8.10;;;5.37;;
19537;SDS011;9914;51.008;4.300;2022-09-27T16:47:34;13.43;;;5.30;;
19537;SDS011;9914;51.008;4.300;2022-09-27T16:50:00;6.40;;;3.40;;
19537;SDS011;9914;51.008;4.300;2022-09-27T16:52:44;4.20;;;3.80;;
19537;SDS011;9914;51.008;4.300;2022-09-27T16:55:13;5.60;;;4.10;;
19537;SDS011;9914;51.008;4.300;2022-09-27T16:57:44;3.90;;;2.90;;
19537;SDS011;9914;51.008;4.300;2022-09-27T17:00:13;4.57;;;3.00;;
19537;SDS011;9914;51.008;4.300;2022-09-27T17:02:39;3.70;;;2.40;;
19537;SDS011;9914;51.008;4.300;2022-09-27T17:05:07;5.03;;;2.33;;
19537;SDS011;9914;51.008;4.300;2022-09-27T17:07:33;5.43;;;3.40;;
19537;SDS011;9914;51.008;4.300;2022-09-27T17:09:58;4.93;;;4.10;;
19537;SDS011;9914;51.008;4.300;2022-09-27T17:12:24;4.23;;;2.73;;
19537;SDS011;9914;51.008;4.300;2022-09-27T17:14:49;4.57;;;2.50;;
19537;SDS011;9914;51.008;4.300;2022-09-27T17:17:15;4.57;;;2.43;;
19537;SDS011;9914;51.008;4.300;2022-09-27T17:19:41;3.83;;;1.73;;
19537;SDS011;9914;51.008;4.300;2022-09-27T17:22:06;2.43;;;1.37;;
19537;SDS011;9914;51.008;4.300;2022-09-27T17:24:33;2.43;;;1.60;;
19537;SDS011;9914;51.008;4.300;2022-09-27T17:26:59;2.43;;;1.67;;
19537;SDS011;9914;51.008;4.300;2022-09-27T17:29:24;3.83;;;1.60;;
19537;SDS011;9914;51.008;4.300;2022-09-27T17:31:50;2.93;;;1.73;;
19537;SDS011;9914;51.008;4.300;2022-09-27T17:34:15;2.13;;;1.40;;
19537;SDS011;9914;51.008;4.300;2022-09-27T17:36:42;3.07;;;1.80;;
19537;SDS011;9914;51.008;4.300;2022-09-27T17:39:12;4.73;;;1.60;;
19537;SDS011;9914;51.008;4.300;2022-09-27T17:41:39;3.93;;;1.80;;
19537;SDS011;9914;51.008;4.300;2022-09-27T17:44:06;3.67;;;1.97;;
19537;SDS011;9914;51.008;4.300;2022-09-27T17:46:35;2.33;;;1.67;;
19537;SDS011;9914;51.008;4.300;2022-09-27T17:49:01;5.23;;;1.40;;
19537;SDS011;9914;51.008;4.300;2022-09-27T17:51:47;2.87;;;1.70;;
19537;SDS011;9914;51.008;4.300;2022-09-27T17:54:15;1.50;;;1.30;;
19537;SDS011;9914;51.008;4.300;2022-09-27T17:56:43;3.30;;;2.07;;
19537;SDS011;9914;51.008;4.300;2022-09-27T17:59:10;1.70;;;1.30;;
19537;SDS011;9914;51.008;4.300;2022-09-27T18:01:37;1.50;;;1.37;;
19537;SDS011;9914;51.008;4.300;2022-09-27T18:04:03;1.20;;;1.10;;
19537;SDS011;9914;51.008;4.300;2022-09-27T18:06:32;1.57;;;1.30;;
19537;SDS011;9914;51.008;4.300;2022-09-27T18:08:58;1.73;;;1.30;;
19537;SDS011;9914;51.008;4.300;2022-09-27T18:11:24;4.57;;;1.23;;
19537;SDS011;9914;51.008;4.300;2022-09-27T18:13:54;1.30;;;1.20;;
19537;SDS011;9914;51.008;4.300;2022-09-27T18:16:24;2.80;;;2.10;;
19537;SDS011;9914;51.008;4.300;2022-09-27T18:18:54;2.27;;;1.90;;
19537;SDS011;9914;51.008;4.300;2022-09-27T18:21:21;2.40;;;1.80;;
19537;SDS011;9914;51.008;4.300;2022-09-27T18:23:48;2.07;;;1.40;;
19537;SDS011;9914;51.008;4.300;2022-09-27T18:26:19;1.30;;;1.20;;
19537;SDS011;9914;51.008;4.300;2022-09-27T18:28:48;1.37;;;1.27;;
19537;SDS011;9914;51.008;4.300;2022-09-27T18:31:16;2.00;;;1.80;;
19537;SDS011;9914;51.008;4.300;2022-09-27T18:33:43;2.17;;;1.63;;
19537;SDS011;9914;51.008;4.300;2022-09-27T18:38:40;3.50;;;3.07;;
19537;SDS011;9914;51.008;4.300;2022-09-27T18:41:12;4.70;;;3.50;;
19537;SDS011;9914;51.008;4.300;2022-09-27T18:43:40;4.60;;;3.93;;
19537;SDS011;9914;51.008;4.300;2022-09-27T18:46:09;6.67;;;5.80;;
19537;SDS011;9914;51.008;4.300;2022-09-27T18:48:36;15.20;;;12.03;;
19537;SDS011;9914;51.008;4.300;2022-09-27T18:51:13;8.03;;;6.57;;
19537;SDS011;9914;51.008;4.300;2022-09-27T18:53:43;10.17;;;8.00;;
19537;SDS011;9914;51.008;4.300;2022-09-27T18:56:14;13.00;;;9.37;;
19537;SDS011;9914;51.008;4.300;2022-09-27T18:58:41;2.67;;;2.23;;
19537;SDS011;9914;51.008;4.300;2022-09-27T19:01:09;3.30;;;1.97;;